sensor_id;sensor_type;location;lat;lon;timestamp;P1;durP1;ratioP1;P2;durP2;ratioP2
53939;SDS011;39850;43.324;21.916;2023-04-01T00:08:56;16.0;;;10.0;;
53939;SDS011;39850;43.324;21.916;2023-04-01T00:13:33;16.0;;;10.0;;
53939;SDS011;39850;43.324;21.916;2023-04-01T00:18:13;16.0;;;10.0;;
53939;SDS011;39850;43.324;21.916;2023-04-01T00:22:50;16.0;;;10.0;;
53939;SDS011;39850;43.324;21.916;2023-04-01T00:27:27;16.0;;;10.0;;
53939;SDS011;39850;43.324;21.916;2023-04-01T00:32:05;16.0;;;10.0;;
53939;SDS011;39850;43.324;21.916;2023-04-01T00:36:42;16.0;;;10.0;;
53939;SDS011;39850;43.324;21.916;2023-04-01T00:41:21;16.0;;;10.0;;
53939;SDS011;39850;43.324;21.916;2023-04-01T00:45:58;17.0;;;11.0;;
53939;SDS011;39850;43.324;21.916;2023-04-01T00:50:52;17.0;;;11.0;;
53939;SDS011;39850;43.324;21.916;2023-04-01T01:26:47;21.0;;;14.0;;
53939;SDS011;39850;43.324;21.916;2023-04-01T01:31:48;21.0;;;14.0;;
53939;SDS011;39850;43.324;21.916;2023-04-01T01:36:34;18.0;;;12.0;;
53939;SDS011;39850;43.324;21.916;2023-04-01T01:41:19;18.0;;;12.0;;
53939;SDS011;39850;43.324;21.916;2023-04-01T01:46:11;16.0;;;11.0;;
53939;SDS011;39850;43.324;21.916;2023-04-01T01:50:53;16.0;;;11.0;;
53939;SDS011;39850;43.324;21.916;2023-04-01T01:55:38;14.0;;;10.0;;
53939;SDS011;39850;43.324;21.916;2023-04-01T02:00:20;14.0;;;10.0;;
53939;SDS011;39850;43.324;21.916;2023-04-01T02:04:59;14.0;;;10.0;;
53939;SDS011;39850;43.324;21.916;2023-04-01T02:09:39;13.0;;;9.0;;
53939;SDS011;39850;43.324;21.916;2023-04-01T02:14:24;13.0;;;9.0;;
53939;SDS011;39850;43.324;21.916;2023-04-01T02:47:03;16.0;;;11.0;;
53939;SDS011;39850;43.324;21.916;2023-04-01T02:51:40;16.0;;;11.0;;
53939;SDS011;39850;43.324;21.916;2023-04-01T02:56:16;16.0;;;10.0;;
53939;SDS011;39850;43.324;21.916;2023-04-01T03:00:52;16.0;;;10.0;;
53939;SDS011;39850;43.324;21.916;2023-04-01T03:05:29;16.0;;;10.0;;
53939;SDS011;39850;43.324;21.916;2023-04-01T03:10:09;15.0;;;10.0;;
53939;SDS011;39850;43.324;21.916;2023-04-01T03:14:46;15.0;;;10.0;;
53939;SDS011;39850;43.324;21.916;2023-04-01T03:19:23;14.0;;;10.0;;
53939;SDS011;39850;43.324;21.916;2023-04-01T03:24:00;14.0;;;10.0;;
53939;SDS011;39850;43.324;21.916;2023-04-01T03:28:37;14.0;;;10.0;;
53939;SDS011;39850;43.324;21.916;2023-04-01T03:33:13;14.0;;;10.0;;
53939;SDS011;39850;43.324;21.916;2023-04-01T04:10:10;13.0;;;8.0;;
53939;SDS011;39850;43.324;21.916;2023-04-01T04:14:46;13.0;;;8.0;;
53939;SDS011;39850;43.324;21.916;2023-04-01T04:19:23;12.0;;;8.0;;
53939;SDS011;39850;43.324;21.916;2023-04-01T04:24:02;12.0;;;8.0;;
53939;SDS011;39850;43.324;21.916;2023-04-01T04:28:40;13.0;;;8.0;;
53939;SDS011;39850;43.324;21.916;2023-04-01T04:33:17;13.0;;;8.0;;
53939;SDS011;39850;43.324;21.916;2023-04-01T04:37:54;12.0;;;8.0;;
53939;SDS011;39850;43.324;21.916;2023-04-01T04:42:30;12.0;;;8.0;;
53939;SDS011;39850;43.324;21.916;2023-04-01T04:47:06;13.0;;;8.0;;
53939;SDS011;39850;43.324;21.916;2023-04-01T04:51:43;13.0;;;8.0;;
53939;SDS011;39850;43.324;21.916;2023-04-01T05:28:38;21.0;;;15.0;;
53939;SDS011;39850;43.324;21.916;2023-04-01T05:33:16;21.0;;;15.0;;
53939;SDS011;39850;43.324;21.916;2023-04-01T05:37:53;22.0;;;16.0;;
53939;SDS011;39850;43.324;21.916;2023-04-01T05:42:30;22.0;;;16.0;;
53939;SDS011;39850;43.324;21.916;2023-04-01T05:47:07;23.0;;;15.0;;
53939;SDS011;39850;43.324;21.916;2023-04-01T05:51:44;23.0;;;15.0;;
53939;SDS011;39850;43.324;21.916;2023-04-01T05:56:21;23.0;;;16.0;;
53939;SDS011;39850;43.324;21.916;2023-04-01T06:01:07;23.0;;;16.0;;
53939;SDS011;39850;43.324;21.916;2023-04-01T06:05:45;23.0;;;16.0;;
53939;SDS011;39850;43.324;21.916;2023-04-01T06:10:55;23.0;;;15.0;;
53939;SDS011;39850;43.324;21.916;2023-04-01T06:16:04;23.0;;;15.0;;
53939;SDS011;39850;43.324;21.916;2023-04-01T06:47:07;23.0;;;16.0;;
53939;SDS011;39850;43.324;21.916;2023-04-01T06:52:20;23.0;;;16.0;;
53939;SDS011;39850;43.324;21.916;2023-04-01T06:57:29;22.0;;;16.0;;
53939;SDS011;39850;43.324;21.916;2023-04-01T07:02:37;22.0;;;16.0;;
53939;SDS011;39850;43.324;21.916;2023-04-01T07:07:37;23.0;;;16.0;;
53939;SDS011;39850;43.324;21.916;2023-04-01T07:12:45;23.0;;;16.0;;
53939;SDS011;39850;43.324;21.916;2023-04-01T07:17:39;24.0;;;18.0;;
53939;SDS011;39850;43.324;21.916;2023-04-01T07:22:35;24.0;;;18.0;;
53939;SDS011;39850;43.324;21.916;2023-04-01T07:27:15;26.0;;;21.0;;
53939;SDS011;39850;43.324;21.916;2023-04-01T07:32:31;26.0;;;21.0;;
53939;SDS011;39850;43.324;21.916;2023-04-01T08:08:53;57.0;;;45.0;;
53939;SDS011;39850;43.324;21.916;2023-04-01T08:14:13;57.0;;;45.0;;
53939;SDS011;39850;43.324;21.916;2023-04-01T08:19:49;56.0;;;44.0;;
53939;SDS011;39850;43.324;21.916;2023-04-01T08:24:48;56.0;;;44.0;;
53939;SDS011;39850;43.324;21.916;2023-04-01T08:29:58;55.0;;;43.0;;
53939;SDS011;39850;43.324;21.916;2023-04-01T08:35:07;55.0;;;43.0;;
53939;SDS011;39850;43.324;21.916;2023-04-01T08:40:32;48.0;;;38.0;;
53939;SDS011;39850;43.324;21.916;2023-04-01T08:46:16;48.0;;;38.0;;
53939;SDS011;39850;43.324;21.916;2023-04-01T08:52:07;42.0;;;32.0;;
53939;SDS011;39850;43.324;21.916;2023-04-01T09:29:02;35.0;;;30.0;;
53939;SDS011;39850;43.324;21.916;2023-04-01T09:34:40;35.0;;;30.0;;
53939;SDS011;39850;43.324;21.916;2023-04-01T09:39:53;37.0;;;31.0;;
53939;SDS011;39850;43.324;21.916;2023-04-01T09:45:01;37.0;;;31.0;;
53939;SDS011;39850;43.324;21.916;2023-04-01T09:50:35;39.0;;;30.0;;
53939;SDS011;39850;43.324;21.916;2023-04-01T09:59:02;39.0;;;31.0;;
53939;SDS011;39850;43.324;21.916;2023-04-01T10:09:42;39.0;;;30.0;;
53939;SDS011;39850;43.324;21.916;2023-04-01T10:51:24;28.0;;;18.0;;
53939;SDS011;39850;43.324;21.916;2023-04-01T10:56:42;28.0;;;18.0;;
53939;SDS011;39850;43.324;21.916;2023-04-01T11:02:46;22.0;;;14.0;;
53939;SDS011;39850;43.324;21.916;2023-04-01T11:11:14;22.0;;;14.0;;
53939;SDS011;39850;43.324;21.916;2023-04-01T11:19:01;15.0;;;11.0;;
53939;SDS011;39850;43.324;21.916;2023-04-01T11:26:09;15.0;;;11.0;;
53939;SDS011;39850;43.324;21.916;2023-04-01T12:08:33;9.0;;;7.0;;
53939;SDS011;39850;43.324;21.916;2023-04-01T12:13:58;9.0;;;7.0;;
53939;SDS011;39850;43.324;21.916;2023-04-01T12:18:59;10.0;;;7.0;;
53939;SDS011;39850;43.324;21.916;2023-04-01T12:24:49;10.0;;;7.0;;
53939;SDS011;39850;43.324;21.916;2023-04-01T12:32:16;10.0;;;7.0;;
53939;SDS011;39850;43.324;21.916;2023-04-01T12:37:21;10.0;;;7.0;;
53939;SDS011;39850;43.324;21.916;2023-04-01T12:42:44;10.0;;;7.0;;
53939;SDS011;39850;43.324;21.916;2023-04-01T12:48:57;10.0;;;7.0;;
53939;SDS011;39850;43.324;21.916;2023-04-01T12:56:52;10.0;;;7.0;;
53939;SDS011;39850;43.324;21.916;2023-04-01T13:29:40;9.0;;;7.0;;
53939;SDS011;39850;43.324;21.916;2023-04-01T13:35:02;9.0;;;7.0;;
53939;SDS011;39850;43.324;21.916;2023-04-01T13:40:50;9.0;;;7.0;;
53939;SDS011;39850;43.324;21.916;2023-04-01T13:46:25;9.0;;;7.0;;
53939;SDS011;39850;43.324;21.916;2023-04-01T13:52:00;9.0;;;7.0;;
53939;SDS011;39850;43.324;21.916;2023-04-01T13:57:28;9.0;;;7.0;;
53939;SDS011;39850;43.324;21.916;2023-04-01T14:03:15;9.0;;;7.0;;
53939;SDS011;39850;43.324;21.916;2023-04-01T14:09:05;9.0;;;7.0;;
53939;SDS011;39850;43.324;21.916;2023-04-01T14:14:44;9.0;;;7.0;;
53939;SDS011;39850;43.324;21.916;2023-04-01T14:49:40;8.0;;;6.0;;
53939;SDS011;39850;43.324;21.916;2023-04-01T14:54:38;8.0;;;6.0;;
53939;SDS011;39850;43.324;21.916;2023-04-01T14:59:30;8.0;;;6.0;;
53939;SDS011;39850;43.324;21.916;2023-04-01T15:05:00;8.0;;;6.0;;
53939;SDS011;39850;43.324;21.916;2023-04-01T15:10:30;8.0;;;6.0;;
53939;SDS011;39850;43.324;21.916;2023-04-01T15:16:19;8.0;;;6.0;;
53939;SDS011;39850;43.324;21.916;2023-04-01T15:21:48;8.0;;;6.0;;
53939;SDS011;39850;43.324;21.916;2023-04-01T15:27:36;8.0;;;6.0;;
53939;SDS011;39850;43.324;21.916;2023-04-01T15:33:07;8.0;;;6.0;;
53939;SDS011;39850;43.324;21.916;2023-04-01T16:10:25;7.0;;;6.0;;
53939;SDS011;39850;43.324;21.916;2023-04-01T16:15:38;7.0;;;6.0;;
53939;SDS011;39850;43.324;21.916;2023-04-01T16:20:46;7.0;;;6.0;;
53939;SDS011;39850;43.324;21.916;2023-04-01T16:25:50;7.0;;;6.0;;
53939;SDS011;39850;43.324;21.916;2023-04-01T16:31:03;7.0;;;6.0;;
53939;SDS011;39850;43.324;21.916;2023-04-01T16:36:17;7.0;;;6.0;;
53939;SDS011;39850;43.324;21.916;2023-04-01T16:41:25;7.0;;;6.0;;
53939;SDS011;39850;43.324;21.916;2023-04-01T16:46:34;7.0;;;6.0;;
53939;SDS011;39850;43.324;21.916;2023-04-01T16:51:19;7.0;;;5.0;;
53939;SDS011;39850;43.324;21.916;2023-04-01T16:56:21;7.0;;;5.0;;
53939;SDS011;39850;43.324;21.916;2023-04-01T17:32:18;9.0;;;7.0;;
53939;SDS011;39850;43.324;21.916;2023-04-01T17:37:43;9.0;;;7.0;;
53939;SDS011;39850;43.324;21.916;2023-04-01T17:43:02;9.0;;;8.0;;
53939;SDS011;39850;43.324;21.916;2023-04-01T17:48:27;9.0;;;8.0;;
53939;SDS011;39850;43.324;21.916;2023-04-01T17:53:56;9.0;;;8.0;;
53939;SDS011;39850;43.324;21.916;2023-04-01T17:59:35;10.0;;;8.0;;
53939;SDS011;39850;43.324;21.916;2023-04-01T18:05:26;10.0;;;8.0;;
53939;SDS011;39850;43.324;21.916;2023-04-01T18:11:10;10.0;;;9.0;;
53939;SDS011;39850;43.324;21.916;2023-04-01T18:16:54;10.0;;;9.0;;
53939;SDS011;39850;43.324;21.916;2023-04-01T18:52:34;8.0;;;7.0;;
53939;SDS011;39850;43.324;21.916;2023-04-01T18:57:19;8.0;;;7.0;;
53939;SDS011;39850;43.324;21.916;2023-04-01T19:02:23;9.0;;;8.0;;
53939;SDS011;39850;43.324;21.916;2023-04-01T19:07:50;9.0;;;8.0;;
53939;SDS011;39850;43.324;21.916;2023-04-01T19:13:02;9.0;;;8.0;;
53939;SDS011;39850;43.324;21.916;2023-04-01T19:19:00;10.0;;;8.0;;
53939;SDS011;39850;43.324;21.916;2023-04-01T19:24:53;10.0;;;8.0;;
53939;SDS011;39850;43.324;21.916;2023-04-01T19:30:45;9.0;;;8.0;;
53939;SDS011;39850;43.324;21.916;2023-04-01T19:35:56;9.0;;;8.0;;
53939;SDS011;39850;43.324;21.916;2023-04-01T20:11:20;37.0;;;33.0;;
53939;SDS011;39850;43.324;21.916;2023-04-01T20:16:09;37.0;;;33.0;;
53939;SDS011;39850;43.324;21.916;2023-04-01T20:21:06;48.0;;;41.0;;
53939;SDS011;39850;43.324;21.916;2023-04-01T20:26:08;48.0;;;41.0;;
53939;SDS011;39850;43.324;21.916;2023-04-01T20:31:23;60.0;;;49.0;;
53939;SDS011;39850;43.324;21.916;2023-04-01T20:36:31;60.0;;;49.0;;
53939;SDS011;39850;43.324;21.916;2023-04-01T20:41:59;80.0;;;63.0;;
53939;SDS011;39850;43.324;21.916;2023-04-01T20:47:49;80.0;;;63.0;;
53939;SDS011;39850;43.324;21.916;2023-04-01T20:53:20;99.0;;;77.0;;
53939;SDS011;39850;43.324;21.916;2023-04-01T20:58:41;99.0;;;77.0;;
53939;SDS011;39850;43.324;21.916;2023-04-01T21:32:54;34.0;;;30.0;;
53939;SDS011;39850;43.324;21.916;2023-04-01T21:38:28;34.0;;;30.0;;
53939;SDS011;39850;43.324;21.916;2023-04-01T21:44:39;43.0;;;37.0;;
53939;SDS011;39850;43.324;21.916;2023-04-01T21:50:55;52.0;;;44.0;;
53939;SDS011;39850;43.324;21.916;2023-04-01T22:00:09;58.0;;;49.0;;
53939;SDS011;39850;43.324;21.916;2023-04-01T22:05:11;58.0;;;49.0;;
53939;SDS011;39850;43.324;21.916;2023-04-01T22:10:38;63.0;;;54.0;;
53939;SDS011;39850;43.324;21.916;2023-04-01T22:16:06;63.0;;;54.0;;
53939;SDS011;39850;43.324;21.916;2023-04-01T22:51:47;36.0;;;31.0;;
53939;SDS011;39850;43.324;21.916;2023-04-01T22:56:43;36.0;;;31.0;;
53939;SDS011;39850;43.324;21.916;2023-04-01T23:01:37;32.0;;;28.0;;
53939;SDS011;39850;43.324;21.916;2023-04-01T23:06:35;32.0;;;28.0;;
53939;SDS011;39850;43.324;21.916;2023-04-01T23:11:28;30.0;;;28.0;;
53939;SDS011;39850;43.324;21.916;2023-04-01T23:16:13;30.0;;;28.0;;
53939;SDS011;39850;43.324;21.916;2023-04-01T23:21:18;30.0;;;26.0;;
53939;SDS011;39850;43.324;21.916;2023-04-01T23:26:30;30.0;;;26.0;;
53939;SDS011;39850;43.324;21.916;2023-04-01T23:31:40;30.0;;;28.0;;
53939;SDS011;39850;43.324;21.916;2023-04-01T23:36:19;30.0;;;28.0;;
